createdAt,value
2018-05-08T00:00:18.518Z,57.52
2018-05-08T00:01:18.489Z,57.43
2018-05-08T00:02:18.496Z,57.90
2018-05-08T00:03:18.466Z,57.33
2018-05-08T00:04:18.458Z,57.52
2018-05-08T00:05:18.445Z,57.52
2018-05-08T00:06:18.449Z,58.10
2018-05-08T00:07:18.425Z,58.20
2018-05-08T00:08:18.417Z,58.48
2018-05-08T00:09:18.402Z,58.20
2018-05-08T00:10:18.390Z,57.90
2018-05-08T00:11:18.396Z,58.29
2018-05-08T00:12:18.369Z,58.20
2018-05-08T00:13:18.358Z,58.36
2018-05-08T00:14:18.348Z,58.36
2018-05-08T00:15:18.336Z,58.55
2018-05-08T00:16:18.344Z,58.26
2018-05-08T00:17:18.317Z,58.55
2018-05-08T00:18:18.304Z,57.30
2018-05-08T00:19:18.293Z,57.59
2018-05-08T00:20:18.282Z,57.23
2018-05-08T00:21:18.288Z,57.01
2018-05-08T00:22:18.259Z,57.23
2018-05-08T00:23:18.262Z,57.62
2018-05-08T00:24:18.237Z,57.23
2018-05-08T00:25:18.225Z,57.43
2018-05-08T00:26:18.218Z,57.43
2018-05-08T00:27:18.220Z,57.81
2018-05-08T00:28:18.195Z,57.43
2018-05-08T00:29:18.184Z,58.39
2018-05-08T00:30:18.176Z,57.81
2018-05-08T00:31:18.175Z,58.39
2018-05-08T00:32:18.148Z,58.29
2018-05-08T00:33:18.152Z,57.71
2018-05-08T00:34:18.126Z,58.58
2018-05-08T00:35:18.131Z,58.26
2018-05-08T00:36:18.118Z,58.26
2018-05-08T00:37:18.093Z,57.97
2018-05-08T00:38:18.097Z,58.07
2018-05-08T00:39:18.070Z,58.55
2018-05-08T00:40:18.062Z,58.36
2018-05-08T00:41:18.046Z,58.36
2018-05-08T00:42:18.037Z,57.68
2018-05-08T00:43:18.044Z,57.88
2018-05-08T00:44:18.016Z,58.17
2018-05-08T00:45:18.006Z,58.07
2018-05-08T00:46:17.993Z,58.36
2018-05-08T00:47:17.983Z,58.10
2018-05-08T00:48:17.972Z,58.17
2018-05-08T00:49:17.977Z,58.36
2018-05-08T00:50:17.956Z,58.55
2018-05-08T00:51:17.936Z,59.61
2018-05-08T00:52:17.929Z,59.61
2018-05-08T00:53:17.915Z,59.70
2018-05-08T00:54:17.926Z,59.89
2018-05-08T00:55:17.894Z,59.89
2018-05-08T00:56:17.889Z,59.51
2018-05-08T00:57:17.870Z,59.61
2018-05-08T00:58:17.859Z,59.12
2018-05-08T00:59:17.849Z,59.70
2018-05-08T01:00:17.854Z,59.51
2018-05-08T01:01:17.830Z,59.41
2018-05-08T01:02:17.819Z,59.80
2018-05-08T01:03:17.806Z,59.22
2018-05-08T01:04:17.796Z,59.80
2018-05-08T01:05:17.813Z,59.41
2018-05-08T01:06:17.770Z,60.18
2018-05-08T01:07:17.760Z,59.51
2018-05-08T01:08:17.749Z,59.99
2018-05-08T01:09:17.736Z,59.99
2018-05-08T01:10:17.726Z,60.95
2018-05-08T01:11:17.730Z,60.44
2018-05-08T01:12:17.705Z,60.47
2018-05-08T01:13:17.694Z,60.53
2018-05-08T01:14:17.683Z,60.92
2018-05-08T01:15:17.674Z,62.84
2018-05-08T01:16:17.661Z,63.57
2018-05-08T01:17:17.659Z,64.25
2018-05-08T01:18:17.635Z,65.11
2018-05-08T01:19:17.624Z,65.46
2018-05-08T01:20:17.613Z,65.84
2018-05-08T01:21:17.613Z,66.71
2018-05-08T01:22:17.591Z,66.99
2018-05-08T01:23:17.574Z,67.91
2018-05-08T01:24:17.570Z,68.40
2018-05-08T01:25:17.555Z,68.49
2018-05-08T01:26:17.559Z,68.78
2018-05-08T01:27:17.528Z,69.26
2018-05-08T01:28:17.530Z,69.35
2018-05-08T01:29:17.505Z,69.17
2018-05-08T01:30:17.496Z,69.74
2018-05-08T01:31:17.499Z,69.60
2018-05-08T01:32:17.472Z,69.70
2018-05-08T01:33:17.460Z,70.66
2018-05-08T01:34:17.450Z,70.76
2018-05-08T01:35:17.437Z,70.85
2018-05-08T01:36:17.440Z,71.62
2018-05-08T01:37:17.425Z,72.00
2018-05-08T01:38:17.401Z,72.58
2018-05-08T01:39:17.389Z,72.67
2018-05-08T01:40:17.376Z,72.34
2018-05-08T01:41:17.382Z,72.58
2018-05-08T01:42:17.352Z,72.77
2018-05-08T01:43:17.385Z,72.44
2018-05-08T01:44:17.325Z,73.40
2018-05-08T01:45:17.316Z,73.30
2018-05-08T01:46:17.300Z,73.40
2018-05-08T01:47:17.301Z,73.59
2018-05-08T01:48:17.297Z,73.79
2018-05-08T01:49:17.266Z,73.79
2018-05-08T01:50:17.259Z,73.94
2018-05-08T01:51:17.244Z,74.36
2018-05-08T01:52:17.229Z,74.84
2018-05-08T01:53:17.216Z,74.84
2018-05-08T01:54:17.225Z,75.31
2018-05-08T01:55:17.189Z,75.70
2018-05-08T01:56:17.185Z,75.51
2018-05-08T01:57:17.166Z,75.79
2018-05-08T01:58:17.153Z,75.89
2018-05-08T01:59:17.146Z,75.70
2018-05-08T02:00:17.145Z,75.89
2018-05-08T02:01:17.117Z,75.89
2018-05-08T02:02:17.104Z,75.31
2018-05-08T02:03:17.093Z,75.76
2018-05-08T02:04:17.080Z,76.04
2018-05-08T02:05:17.065Z,76.23
2018-05-08T02:06:17.066Z,76.33
2018-05-08T02:07:17.037Z,76.33
2018-05-08T02:08:17.029Z,76.33
2018-05-08T02:09:17.016Z,76.42
2018-05-08T02:10:17.004Z,77.00
2018-05-08T02:11:16.990Z,76.71
2018-05-08T02:12:16.996Z,76.52
2018-05-08T02:13:16.966Z,77.00
2018-05-08T02:14:16.952Z,77.86
2018-05-08T02:15:16.939Z,78.43
2018-05-08T02:16:16.943Z,79.29
2018-05-08T02:17:16.914Z,78.81
2018-05-08T02:18:16.917Z,79.35
2018-05-08T02:19:16.887Z,79.64
2018-05-08T02:20:16.958Z,79.16
2018-05-08T02:21:16.867Z,79.54
2018-05-08T02:22:16.850Z,79.44
2018-05-08T02:23:16.852Z,79.06
2018-05-08T02:24:16.823Z,79.44
2018-05-08T02:25:16.809Z,79.25
2018-05-08T02:26:16.796Z,80.02
2018-05-08T02:27:16.786Z,79.73
2018-05-08T02:28:16.785Z,79.93
2018-05-08T02:29:16.757Z,81.26
2018-05-08T02:30:16.743Z,81.07
2018-05-08T02:31:16.746Z,80.88
2018-05-08T02:32:16.718Z,81.55
2018-05-08T02:33:16.705Z,81.74
2018-05-08T02:34:16.711Z,81.55
2018-05-08T02:35:16.681Z,81.74
2018-05-08T02:36:16.667Z,81.93
2018-05-08T02:37:16.650Z,81.60
2018-05-08T02:38:16.640Z,81.79
2018-05-08T02:39:16.623Z,82.18
2018-05-08T02:40:16.628Z,83.46
2018-05-08T02:41:16.598Z,83.42
2018-05-08T02:42:16.586Z,83.23
2018-05-08T02:43:16.589Z,83.51
2018-05-08T02:44:16.559Z,83.04
2018-05-08T02:45:37.555Z,83.42
2018-05-08T02:46:16.530Z,83.84
2018-05-08T02:47:16.520Z,83.94
2018-05-08T02:48:16.505Z,83.42
2018-05-08T02:49:16.508Z,83.51
2018-05-08T02:50:16.478Z,83.70
2018-05-08T02:51:16.469Z,84.03
2018-05-08T02:52:16.452Z,83.42
2018-05-08T02:53:16.438Z,83.99
2018-05-08T02:54:16.427Z,83.61
2018-05-08T02:55:16.423Z,84.28
2018-05-08T02:56:16.397Z,85.62
2018-05-08T02:57:16.384Z,86.29
2018-05-08T02:58:16.371Z,86.96
2018-05-08T02:59:16.357Z,86.96
2018-05-08T03:00:16.381Z,86.76
2018-05-08T03:01:16.327Z,86.96
2018-05-08T03:02:16.319Z,87.43
2018-05-08T03:03:16.305Z,87.82
2018-05-08T03:04:16.292Z,87.82
2018-05-08T03:05:16.278Z,87.72
2018-05-08T03:06:16.278Z,87.72
2018-05-08T03:07:16.249Z,87.82
2018-05-08T03:08:16.238Z,89.34
2018-05-08T03:09:16.222Z,89.15
2018-05-08T03:10:16.215Z,88.87
2018-05-08T03:11:16.211Z,88.96
2018-05-08T03:12:16.181Z,88.25
2018-05-08T03:13:16.174Z,88.73
2018-05-08T03:14:16.152Z,89.68
2018-05-08T03:15:16.140Z,89.59
2018-05-08T03:16:16.128Z,89.68
2018-05-08T03:17:16.129Z,89.49
2018-05-08T03:18:16.096Z,89.49
2018-05-08T03:19:16.087Z,89.59
2018-05-08T03:20:16.070Z,90.45
2018-05-08T03:21:16.062Z,90.54
2018-05-08T03:22:16.077Z,90.35
2018-05-08T03:23:16.058Z,90.54
2018-05-08T03:24:16.020Z,90.92
2018-05-08T03:25:16.006Z,90.92
2018-05-08T03:26:15.992Z,91.11
2018-05-08T03:27:15.992Z,91.30
2018-05-08T03:28:15.967Z,91.59
2018-05-08T03:29:15.954Z,92.12
2018-05-08T03:30:15.938Z,92.41
2018-05-08T03:31:15.924Z,93.55
2018-05-08T03:32:15.914Z,92.97
2018-05-08T03:33:15.911Z,93.60
2018-05-08T03:34:15.884Z,93.36
2018-05-08T03:35:15.869Z,93.55
2018-05-08T03:36:15.855Z,94.22
2018-05-08T03:37:15.856Z,94.12
2018-05-08T03:38:15.828Z,94.31
2018-05-08T03:39:15.813Z,94.60
2018-05-08T03:40:15.817Z,94.70
2018-05-08T03:41:15.789Z,95.36
2018-05-08T03:42:15.775Z,95.27
2018-05-08T03:43:15.764Z,95.84
2018-05-08T03:44:15.748Z,96.03
2018-05-08T03:45:15.754Z,95.56
2018-05-08T03:46:15.719Z,95.79
2018-05-08T03:47:15.705Z,95.36
2018-05-08T03:48:15.693Z,94.41
2018-05-08T03:49:15.678Z,94.89
2018-05-08T03:50:15.666Z,94.79
2018-05-08T03:51:15.664Z,94.89
2018-05-08T03:52:15.637Z,94.79
2018-05-08T03:53:15.625Z,94.79
2018-05-08T03:54:15.609Z,94.79
2018-05-08T03:55:15.601Z,94.51
2018-05-08T03:56:15.595Z,94.70
2018-05-08T03:57:15.640Z,95.65
2018-05-08T03:58:15.553Z,94.98
2018-05-08T03:59:15.541Z,95.94
2018-05-08T04:00:15.541Z,95.36
2018-05-08T04:01:15.529Z,95.94
2018-05-08T04:02:15.497Z,95.46
2018-05-08T04:03:15.484Z,95.36
2018-05-08T04:04:15.472Z,95.94
2018-05-08T04:05:15.457Z,95.46
2018-05-08T04:06:15.446Z,95.36
2018-05-08T04:07:15.443Z,95.94
2018-05-08T04:08:15.421Z,95.56
2018-05-08T04:09:15.403Z,95.65
2018-05-08T04:10:15.402Z,95.46
2018-05-08T04:11:15.375Z,95.36
2018-05-08T04:12:15.360Z,95.65
2018-05-08T04:13:15.351Z,95.94
2018-05-08T04:14:15.376Z,95.36
2018-05-08T04:15:15.339Z,95.08
2018-05-08T04:16:15.307Z,95.27
2018-05-08T04:17:15.290Z,94.89
2018-05-08T04:18:15.278Z,94.07
2018-05-08T04:19:15.264Z,93.21
2018-05-08T04:20:15.259Z,93.60
2018-05-08T04:21:15.258Z,92.26
2018-05-08T04:22:15.242Z,92.26
2018-05-08T04:23:15.213Z,91.97
2018-05-08T04:24:15.194Z,92.02
2018-05-08T04:25:15.182Z,91.45
2018-05-08T04:26:15.171Z,91.45
2018-05-08T04:27:15.153Z,90.78
2018-05-08T04:28:15.157Z,90.68
2018-05-08T04:29:15.129Z,90.39
2018-05-08T04:30:15.117Z,90.34
2018-05-08T04:31:15.101Z,89.77
2018-05-08T04:32:15.087Z,89.01
2018-05-08T04:33:15.089Z,87.95
2018-05-08T04:34:15.060Z,86.85
2018-05-08T04:35:15.047Z,86.28
2018-05-08T04:36:15.034Z,85.61
2018-05-08T04:37:15.019Z,83.83
2018-05-08T04:38:36.025Z,84.08
2018-05-08T04:39:14.993Z,83.45
2018-05-08T04:40:14.984Z,81.82
2018-05-08T04:41:14.965Z,81.82
2018-05-08T04:42:14.969Z,82.20
2018-05-08T04:43:14.941Z,82.97
2018-05-08T04:44:14.942Z,83.06
2018-05-08T04:45:14.912Z,83.64
2018-05-08T04:46:14.897Z,83.03
2018-05-08T04:47:14.890Z,84.02
2018-05-08T04:48:14.873Z,83.50
2018-05-08T04:49:14.878Z,84.08
2018-05-08T04:50:14.899Z,84.55
2018-05-08T04:51:14.838Z,83.40
2018-05-08T04:52:14.818Z,83.40
2018-05-08T04:53:14.813Z,84.08
2018-05-08T04:54:14.818Z,83.45
2018-05-08T04:55:14.782Z,81.82
2018-05-08T04:56:14.785Z,81.73
2018-05-08T04:57:14.756Z,80.67
2018-05-08T04:58:14.743Z,80.19
2018-05-08T04:59:14.733Z,79.08
2018-05-08T05:00:14.727Z,80.24
2018-05-08T05:01:14.718Z,80.33
2018-05-08T05:02:14.691Z,78.89
2018-05-08T05:03:14.679Z,78.80
2018-05-08T05:04:14.664Z,79.18
2018-05-08T05:05:14.654Z,79.75
2018-05-08T05:06:14.650Z,80.04
2018-05-08T05:07:14.625Z,79.47
2018-05-08T05:08:14.625Z,79.37
2018-05-08T05:09:14.601Z,79.18
2018-05-08T05:10:14.592Z,78.13
2018-05-08T05:11:14.590Z,77.55
2018-05-08T05:12:14.560Z,78.51
2018-05-08T05:13:14.552Z,78.27
2018-05-08T05:14:14.534Z,77.31
2018-05-08T05:15:14.524Z,77.21
2018-05-08T05:16:14.512Z,76.54
2018-05-08T05:17:14.515Z,76.82
2018-05-08T05:18:14.485Z,77.11
2018-05-08T05:19:14.473Z,76.44
2018-05-08T05:20:14.461Z,77.02
2018-05-08T05:21:14.447Z,78.17
2018-05-08T05:22:14.435Z,78.27
2018-05-08T05:23:14.434Z,77.69
2018-05-08T05:24:14.423Z,76.92
2018-05-08T05:25:14.396Z,76.54
2018-05-08T05:26:14.383Z,77.02
2018-05-08T05:27:14.370Z,77.25
2018-05-08T05:28:14.372Z,75.62
2018-05-08T05:29:14.361Z,74.82
2018-05-08T05:30:14.333Z,73.80
2018-05-08T05:31:14.320Z,74.08
2018-05-08T05:32:14.308Z,73.61
2018-05-08T05:33:14.312Z,73.22
2018-05-08T05:34:14.284Z,73.26
2018-05-08T05:35:14.288Z,72.49
2018-05-08T05:36:14.258Z,72.20
2018-05-08T05:37:14.248Z,72.11
2018-05-08T05:38:14.234Z,72.11
2018-05-08T05:39:14.236Z,71.44
2018-05-08T05:40:14.211Z,71.92
2018-05-08T05:41:14.201Z,71.05
2018-05-08T05:42:14.183Z,71.05
2018-05-08T05:43:14.174Z,71.63
2018-05-08T05:44:14.176Z,72.11
2018-05-08T05:45:14.165Z,72.88
2018-05-08T05:46:14.151Z,72.49
2018-05-08T05:47:14.128Z,71.92
2018-05-08T05:48:14.114Z,72.20
2018-05-08T05:49:14.103Z,72.49
2018-05-08T05:50:14.088Z,72.97
2018-05-08T05:51:14.093Z,72.39
2018-05-08T05:52:14.063Z,71.82
2018-05-08T05:53:14.081Z,71.72
2018-05-08T05:54:14.041Z,71.72
2018-05-08T05:55:14.042Z,71.44
2018-05-08T05:56:14.017Z,70.76
2018-05-08T05:57:14.004Z,70.86
2018-05-08T05:58:13.989Z,70.67
2018-05-08T05:59:13.978Z,71.15
2018-05-08T06:00:34.980Z,70.76
2018-05-08T06:01:13.955Z,70.42
2018-05-08T06:02:13.952Z,70.48
2018-05-08T06:03:13.947Z,70.00
2018-05-08T06:04:13.922Z,69.93
2018-05-08T06:05:13.905Z,69.84
2018-05-08T06:06:13.895Z,69.17
2018-05-08T06:07:13.882Z,69.46
2018-05-08T06:08:13.872Z,69.26
2018-05-08T06:09:13.872Z,69.93
2018-05-08T06:10:13.844Z,69.56
2018-05-08T06:11:13.836Z,68.79
2018-05-08T06:12:13.850Z,68.98
2018-05-08T06:13:13.810Z,68.98
2018-05-08T06:14:13.799Z,68.79
2018-05-08T06:15:13.783Z,68.02
2018-05-08T06:16:13.771Z,68.50
2018-05-08T06:17:13.758Z,68.15
2018-05-08T06:18:13.765Z,67.57
2018-05-08T06:19:13.737Z,67.09
2018-05-08T06:20:13.744Z,67.00
2018-05-08T06:21:13.713Z,66.90
2018-05-08T06:22:13.700Z,66.71
2018-05-08T06:23:13.687Z,66.80
2018-05-08T06:24:13.675Z,66.33
2018-05-08T06:25:13.677Z,66.23
2018-05-08T06:26:13.650Z,65.49
2018-05-08T06:27:13.641Z,65.20
2018-05-08T06:28:13.627Z,65.36
2018-05-08T06:29:13.614Z,65.40
2018-05-08T06:30:13.619Z,66.16
2018-05-08T06:31:13.593Z,65.49
2018-05-08T06:32:13.589Z,65.49
2018-05-08T06:33:13.572Z,65.20
2018-05-08T06:34:13.556Z,65.20
2018-05-08T06:35:13.563Z,66.55
2018-05-08T06:36:13.534Z,65.40
2018-05-08T06:37:13.524Z,64.34
2018-05-08T06:38:13.523Z,64.34
2018-05-08T06:39:13.543Z,64.25
2018-05-08T06:40:13.488Z,64.25
2018-05-08T06:41:13.474Z,64.43
2018-05-08T06:42:13.464Z,64.72
2018-05-08T06:43:13.448Z,64.66
2018-05-08T06:44:13.495Z,64.28
2018-05-08T06:45:13.506Z,64.72
2018-05-08T06:46:13.431Z,64.28
2018-05-08T06:47:13.407Z,63.51
2018-05-08T06:48:13.395Z,63.70
2018-05-08T06:49:13.380Z,63.99
2018-05-08T06:50:14.372Z,63.89
2018-05-08T06:51:13.374Z,64.28
2018-05-08T06:52:13.362Z,63.60
2018-05-08T06:53:13.338Z,63.92
2018-05-08T06:54:13.325Z,63.35
2018-05-08T06:55:13.313Z,63.54
2018-05-08T06:56:13.303Z,63.83
2018-05-08T06:57:13.290Z,63.64
2018-05-08T06:58:13.299Z,62.68
2018-05-08T06:59:13.282Z,62.19
2018-05-08T07:00:13.256Z,62.00
2018-05-08T07:01:13.262Z,61.33
2018-05-08T07:02:13.233Z,61.43
2018-05-08T07:03:13.220Z,61.43
2018-05-08T07:04:13.213Z,61.36
2018-05-08T07:05:13.215Z,61.07
2018-05-08T07:06:13.183Z,60.69
2018-05-08T07:07:13.175Z,60.88
2018-05-08T07:08:13.180Z,61.36
2018-05-08T07:09:13.193Z,60.59
2018-05-08T07:10:13.143Z,59.44
2018-05-08T07:11:13.145Z,58.67
2018-05-08T07:12:13.800Z,58.09
2018-05-08T07:13:13.131Z,57.64
2018-05-08T07:14:13.100Z,56.87
2018-05-08T07:15:13.118Z,57.54
2018-05-08T07:16:13.289Z,57.45
2018-05-08T07:17:13.135Z,57.37
2018-05-08T07:18:13.082Z,57.57
2018-05-08T07:19:13.120Z,57.50
2018-05-08T07:20:13.034Z,56.12
2018-05-08T07:21:13.018Z,55.93
2018-05-08T07:22:13.009Z,56.25
2018-05-08T07:23:13.027Z,56.90
2018-05-08T07:24:12.988Z,57.60
2018-05-08T07:25:12.993Z,55.96
2018-05-08T07:26:12.968Z,55.96
2018-05-08T07:27:12.961Z,56.05
2018-05-08T07:28:12.945Z,55.67
2018-05-08T07:29:12.936Z,55.67
2018-05-08T07:30:12.944Z,55.67
2018-05-08T07:31:12.916Z,55.48
2018-05-08T07:32:12.904Z,55.48
2018-05-08T07:33:12.900Z,55.57
2018-05-08T07:34:12.897Z,55.77
2018-05-08T07:35:12.878Z,55.96
2018-05-08T07:36:12.860Z,55.29
2018-05-08T07:37:12.854Z,55.70
2018-05-08T07:38:12.923Z,54.35
2018-05-08T07:39:12.833Z,54.44
2018-05-08T07:40:12.818Z,55.89
2018-05-08T07:41:12.833Z,56.09
2018-05-08T07:42:12.806Z,54.74
2018-05-08T07:43:12.809Z,54.44
2018-05-08T07:44:12.779Z,53.67
2018-05-08T07:45:12.774Z,53.67
2018-05-08T07:46:12.765Z,54.16
2018-05-08T07:47:12.774Z,54.25
2018-05-08T07:48:12.739Z,54.28
2018-05-08T07:49:12.732Z,54.18
2018-05-08T07:50:12.723Z,54.47
2018-05-08T07:51:12.708Z,54.38
2018-05-08T07:52:12.718Z,52.83
2018-05-08T07:53:12.691Z,53.22
2018-05-08T07:54:12.681Z,53.29
2018-05-08T07:55:12.684Z,54.06
2018-05-08T07:56:12.661Z,53.48
2018-05-08T07:57:12.664Z,52.91
2018-05-08T07:58:12.641Z,52.73
2018-05-08T07:59:12.631Z,52.73
2018-05-08T08:00:12.623Z,52.25
2018-05-08T08:01:12.630Z,51.87
2018-05-08T08:02:12.605Z,51.94
2018-05-08T08:03:12.611Z,51.48
2018-05-08T08:04:12.579Z,51.97
2018-05-08T08:05:12.575Z,51.68
2018-05-08T08:06:12.580Z,51.58
2018-05-08T08:07:12.565Z,50.71
2018-05-08T08:08:12.542Z,50.62
2018-05-08T08:09:12.535Z,50.16
2018-05-08T08:10:12.519Z,49.87
2018-05-08T08:11:12.514Z,50.16
2018-05-08T08:12:12.517Z,49.29
2018-05-08T08:13:12.505Z,49.39
2018-05-08T08:14:12.479Z,49.58
2018-05-08T08:15:12.477Z,49.39
2018-05-08T08:16:12.465Z,49.39
2018-05-08T08:17:12.475Z,49.29
2018-05-08T08:18:12.442Z,49.39
2018-05-08T08:19:12.435Z,48.74
2018-05-08T08:20:12.423Z,49.22
2018-05-08T08:21:12.415Z,49.02
2018-05-08T08:22:12.405Z,48.35
2018-05-08T08:23:12.410Z,48.16
2018-05-08T08:24:12.385Z,48.54
2018-05-08T08:25:12.375Z,48.66
2018-05-08T08:26:12.364Z,47.31
2018-05-08T08:27:12.354Z,46.83
2018-05-08T08:28:12.364Z,45.76
2018-05-08T08:29:12.335Z,46.25
2018-05-08T08:30:12.330Z,46.64
2018-05-08T08:31:12.325Z,46.83
2018-05-08T08:32:12.310Z,46.06
2018-05-08T08:33:12.312Z,45.00
2018-05-08T08:34:12.293Z,45.59
2018-05-08T08:35:12.280Z,45.40
2018-05-08T08:36:12.270Z,44.82
2018-05-08T08:37:12.259Z,44.43
2018-05-08T08:38:12.250Z,44.73
2018-05-08T08:39:12.256Z,45.01
2018-05-08T08:40:12.235Z,46.56
2018-05-08T08:41:12.228Z,44.82
2018-05-08T08:42:12.210Z,44.63
2018-05-08T08:43:12.207Z,44.53
2018-05-08T08:44:12.218Z,44.53
2018-05-08T08:45:12.184Z,44.82
2018-05-08T08:46:12.177Z,44.82
2018-05-08T08:47:12.169Z,43.98
2018-05-08T08:48:12.161Z,43.59
2018-05-08T08:49:12.158Z,44.65
2018-05-08T08:50:12.158Z,43.20
2018-05-08T08:51:12.133Z,43.40
2018-05-08T08:52:12.127Z,43.49
2018-05-08T08:53:12.122Z,43.51
2018-05-08T08:54:12.103Z,42.65
2018-05-08T08:55:12.118Z,42.55
2018-05-08T08:56:12.090Z,42.96
2018-05-08T08:57:12.096Z,43.17
2018-05-08T08:58:12.082Z,42.13
2018-05-08T08:59:12.068Z,41.17
2018-05-08T09:00:12.053Z,40.71
2018-05-08T09:01:12.064Z,39.18
2018-05-08T09:02:12.034Z,38.31
2018-05-08T09:03:12.030Z,38.60
2018-05-08T09:04:12.037Z,37.94
2018-05-08T09:05:12.012Z,37.55
2018-05-08T09:06:12.000Z,37.65
2018-05-08T09:07:12.009Z,37.76
2018-05-08T09:08:11.995Z,37.84
2018-05-08T09:09:11.977Z,37.66
2018-05-08T09:10:11.969Z,37.66
2018-05-08T09:11:12.005Z,37.41
2018-05-08T09:12:11.953Z,36.67
2018-05-08T09:13:11.963Z,36.57
2018-05-08T09:14:11.935Z,36.83
2018-05-08T09:15:11.927Z,37.24
2018-05-08T09:16:11.926Z,35.88
2018-05-08T09:17:11.918Z,36.08
2018-05-08T09:18:11.903Z,34.92
2018-05-08T09:19:11.920Z,34.94
2018-05-08T09:20:11.894Z,34.79
2018-05-08T09:21:11.878Z,36.22
2018-05-08T09:22:11.891Z,36.60
2018-05-08T09:23:12.484Z,36.91
2018-05-08T09:24:11.859Z,36.73
2018-05-08T09:25:11.854Z,36.54
2018-05-08T09:26:11.848Z,36.63
2018-05-08T09:27:11.847Z,35.49
2018-05-08T09:28:11.842Z,35.58
2018-05-08T09:29:11.821Z,34.94
2018-05-08T09:30:32.829Z,34.76
2018-05-08T09:31:11.808Z,33.23
2018-05-08T09:32:11.809Z,33.15
2018-05-08T09:33:11.800Z,33.36
2018-05-08T09:34:11.798Z,31.04
2018-05-08T09:35:11.792Z,31.92
2018-05-08T09:36:11.803Z,31.05
2018-05-08T09:37:11.861Z,31.31
2018-05-08T09:38:11.786Z,31.67
2018-05-08T09:39:11.779Z,31.51
2018-05-08T09:40:11.773Z,31.72
2018-05-08T09:41:11.786Z,33.09
2018-05-08T09:42:11.770Z,32.23
2018-05-08T09:43:11.768Z,31.45
2018-05-08T09:44:11.785Z,32.23
2018-05-08T09:45:11.765Z,30.96
2018-05-08T09:46:11.785Z,30.83
2018-05-08T09:47:11.765Z,30.96
2018-05-08T09:48:11.762Z,30.77
2018-05-08T09:49:11.776Z,30.60
2018-05-08T09:50:11.759Z,30.81
2018-05-08T09:51:11.762Z,32.09
2018-05-08T09:52:11.775Z,30.16
2018-05-08T09:53:11.761Z,29.57
2018-05-08T09:54:11.809Z,30.08
2018-05-08T09:55:11.764Z,31.07
2018-05-08T09:56:11.761Z,30.98
2018-05-08T09:57:11.762Z,29.22
2018-05-08T09:58:11.775Z,29.06
2018-05-08T09:59:11.764Z,28.08
2018-05-08T10:00:11.765Z,29.63
2018-05-08T10:01:11.786Z,29.41
2018-05-08T10:02:11.767Z,29.56
2018-05-08T10:03:11.775Z,29.57
2018-05-08T10:04:11.769Z,29.20
2018-05-08T10:05:11.763Z,29.49
2018-05-08T10:06:11.784Z,28.88
2018-05-08T10:07:11.770Z,29.49
2018-05-08T10:08:11.772Z,29.08
2018-05-08T10:09:11.776Z,30.08
2018-05-08T10:10:11.779Z,30.38
2018-05-08T10:11:11.791Z,28.83
2018-05-08T10:12:11.796Z,28.29
2018-05-08T10:13:11.781Z,30.11
2018-05-08T10:14:11.785Z,30.70
2018-05-08T10:15:11.786Z,30.90
2018-05-08T10:16:11.790Z,30.44
2018-05-08T10:17:11.804Z,30.47
2018-05-08T10:18:11.793Z,29.50
2018-05-08T10:19:11.798Z,30.59
2018-05-08T10:20:11.814Z,29.34
2018-05-08T10:21:11.800Z,28.39
2018-05-08T10:22:11.802Z,28.38
2018-05-08T10:23:11.806Z,27.67
2018-05-08T10:24:11.823Z,27.58
2018-05-08T10:25:11.810Z,28.38
2018-05-08T10:26:11.813Z,28.96
2018-05-08T10:27:11.818Z,27.59
2018-05-08T10:28:11.833Z,27.11
2018-05-08T10:29:11.821Z,26.25
2018-05-08T10:30:11.825Z,27.33
2018-05-08T10:31:11.840Z,26.06
2018-05-08T10:32:11.830Z,25.95
2018-05-08T10:33:11.834Z,26.21
2018-05-08T10:34:11.836Z,26.11
2018-05-08T10:35:11.855Z,28.55
2018-05-08T10:36:11.858Z,28.86
2018-05-08T10:37:11.845Z,26.81
2018-05-08T10:38:11.847Z,26.61
2018-05-08T10:39:11.852Z,26.62
2018-05-08T10:40:11.875Z,28.38
2018-05-08T10:41:11.853Z,26.43
2018-05-08T10:42:11.862Z,26.62
2018-05-08T10:43:11.867Z,26.14
2018-05-08T10:44:11.884Z,26.03
2018-05-08T10:45:11.873Z,25.83
2018-05-08T10:46:11.889Z,26.32
2018-05-08T10:47:11.879Z,26.42
2018-05-08T10:48:11.883Z,26.04
2018-05-08T10:49:11.887Z,25.35
2018-05-08T10:50:11.903Z,26.25
2018-05-08T10:51:11.912Z,25.94
2018-05-08T10:52:11.897Z,25.16
2018-05-08T10:53:11.898Z,25.17
2018-05-08T10:54:11.909Z,25.07
2018-05-08T10:55:11.923Z,25.18
2018-05-08T10:56:11.917Z,26.64
2018-05-08T10:57:11.922Z,25.48
2018-05-08T10:58:11.924Z,26.26
2018-05-08T10:59:11.926Z,27.04
2018-05-08T11:00:11.942Z,26.65
2018-05-08T11:01:11.935Z,26.15
2018-05-08T11:02:11.941Z,25.37
2018-05-08T11:03:11.960Z,25.27
2018-05-08T11:04:11.950Z,24.58
2018-05-08T11:05:11.955Z,24.87
2018-05-08T11:06:11.972Z,23.90
2018-05-08T11:07:11.976Z,24.68
2018-05-08T11:08:11.965Z,25.17
2018-05-08T11:09:11.969Z,24.68
2018-05-08T11:10:11.974Z,26.15
2018-05-08T11:11:11.980Z,23.68
2018-05-08T11:12:12.001Z,23.77
2018-05-08T11:13:11.988Z,25.05
2018-05-08T11:14:11.991Z,25.34
2018-05-08T11:15:11.999Z,25.16
2018-05-08T11:16:12.001Z,25.27
2018-05-08T11:17:12.013Z,26.83
2018-05-08T11:18:12.026Z,26.34
2018-05-08T11:19:12.016Z,26.34
2018-05-08T11:20:12.021Z,25.95
2018-05-08T11:21:12.023Z,24.38
2018-05-08T11:22:12.027Z,24.77
2018-05-08T11:23:12.046Z,25.57
2018-05-08T11:24:12.037Z,25.95
2018-05-08T11:25:12.043Z,25.24
2018-05-08T11:26:12.062Z,26.53
2018-05-08T11:27:12.052Z,26.14
2018-05-08T11:28:12.055Z,23.69
2018-05-08T11:29:12.061Z,25.35
2018-05-08T11:30:12.065Z,25.35
2018-05-08T11:31:12.088Z,23.49
2018-05-08T11:32:12.076Z,25.35
2018-05-08T11:33:12.077Z,25.55
2018-05-08T11:34:12.083Z,23.68
2018-05-08T11:35:12.086Z,25.02
2018-05-08T11:36:12.105Z,23.75
2018-05-08T11:37:12.094Z,23.15
2018-05-08T11:38:12.100Z,23.34
2018-05-08T11:39:12.222Z,24.01
2018-05-08T11:40:12.110Z,25.01
2018-05-08T11:41:12.112Z,24.73
2018-05-08T11:42:12.113Z,23.58
2018-05-08T11:43:12.126Z,23.59
2018-05-08T11:44:12.126Z,24.76
2018-05-08T11:45:12.209Z,24.44
2018-05-08T11:46:12.135Z,24.44
2018-05-08T11:47:12.155Z,24.93
2018-05-08T11:48:12.144Z,25.05
2018-05-08T11:49:12.145Z,24.44
2018-05-08T11:50:12.154Z,25.05
2018-05-08T11:51:12.155Z,24.55
2018-05-08T11:52:12.174Z,23.87
2018-05-08T11:53:12.166Z,24.44
2018-05-08T11:54:12.168Z,24.04
2018-05-08T11:55:12.189Z,25.13
2018-05-08T11:56:12.176Z,26.20
2018-05-08T11:57:12.179Z,24.74
2018-05-08T11:58:12.182Z,23.86
2018-05-08T11:59:12.189Z,23.48
2018-05-08T12:00:12.212Z,23.02
2018-05-08T12:01:12.196Z,25.17
2018-05-08T12:02:12.203Z,24.87
2018-05-08T12:03:12.227Z,24.37
2018-05-08T12:04:12.213Z,23.46
2018-05-08T12:05:13.881Z,24.61
2018-05-08T12:06:12.220Z,23.91
2018-05-08T12:07:12.227Z,24.88
2018-05-08T12:08:12.229Z,25.18
2018-05-08T12:09:12.332Z,25.78
2018-05-08T12:10:12.239Z,25.60
2018-05-08T12:11:12.243Z,24.62
2018-05-08T12:12:12.245Z,25.00
2018-05-08T12:13:12.252Z,25.31
2018-05-08T12:14:12.267Z,25.20
2018-05-08T12:15:12.262Z,25.39
2018-05-08T12:16:12.259Z,25.75
2018-05-08T12:17:12.267Z,25.08
2018-05-08T12:18:12.289Z,26.04
2018-05-08T12:19:12.273Z,28.00
2018-05-08T12:20:12.273Z,27.97
2018-05-08T12:21:12.282Z,28.07
2018-05-08T12:22:12.302Z,27.98
2018-05-08T12:23:12.287Z,27.61
2018-05-08T12:24:12.292Z,27.41
2018-05-08T12:25:12.299Z,27.31
2018-05-08T12:26:12.301Z,26.14
2018-05-08T12:27:12.324Z,25.85
2018-05-08T12:28:12.305Z,25.68
2018-05-08T12:29:12.306Z,25.98
2018-05-08T12:30:12.310Z,25.98
2018-05-08T12:31:12.312Z,26.67
2018-05-08T12:32:12.321Z,26.20
2018-05-08T12:33:12.333Z,25.22
2018-05-08T12:34:12.325Z,25.12
2018-05-08T12:35:12.331Z,23.64
2018-05-08T12:36:12.430Z,24.81
2018-05-08T12:37:12.333Z,24.71
2018-05-08T12:38:12.352Z,24.60
2018-05-08T12:39:12.341Z,25.08
2018-05-08T12:40:12.344Z,24.78
2018-05-08T12:41:12.346Z,25.56
2018-05-08T12:42:12.454Z,24.98
2018-05-08T12:43:12.366Z,24.99
2018-05-08T12:44:12.354Z,26.76
2018-05-08T12:45:12.357Z,26.27
2018-05-08T12:46:12.357Z,25.40
2018-05-08T12:47:12.375Z,23.74
2018-05-08T12:48:12.381Z,23.55
2018-05-08T12:49:12.388Z,24.33
2018-05-08T12:50:12.369Z,26.10
2018-05-08T12:51:12.374Z,25.90
2018-05-08T12:52:12.390Z,27.09